KMFV

Accomack County Airport

Melfa, Virginia, USA
METAR KMFV 210355Z AUTO 09005KT 10SM BKN030 25/23 A3008 RMK AO2 T02450230
Observed Flight Rules
Aug-21 @ 03:55 UTC (15 minutes ago) Marginal Visual Flight Rules
Wind Visibility Clouds
90° at 5 knots 10 miles
  • Broken at 3,000' AGL
Temperatures Readings
Current 25°C / 77°F
Dewpoint 23°C / 73°F
Humidity 89%
Altimeter 30.08" Hg
Pressure 1019 hPa
Elevation 15
METAR KMFV 210355Z AUTO 09005KT 10SM BKN030 25/23 A3008 RMK AO2 T02450230
Observed Flight Rules
Aug-21 @ 03:55 UTC
(15 minutes ago)
MVFR
Wind Visibility
90° at 5 knots 10 miles
Clouds
  • Broken at 3,000' AGL
Temperature Dewpoint
25°C / 77°F 23°C / 73°F
Humidity Altimeter Pressure
89% 30.08" Hg 1019 hPa